Time;durP1;ratioP1;P1;durP2;ratioP2;P2;SDS_P1;SDS_P2;PMS_P1;PMS_P2;Temp;Humidity;BMP_temperature;BMP_pressure;BME280_temperature;BME280_humidity;BME280_pressure;Samples;Min_cycle;Max_cycle;Signal;HPM_P1;HPM_P2
2022/03/19 00:00:45;;;;;;;33.60;17.98;;;;;;;8.98;46.34;100879.62;4503367;31;20123;-78
2022/03/19 00:03:12;;;;;;;35.88;16.85;;;;;;;8.95;46.48;100882.28;4488075;31;20439;-79
2022/03/19 00:05:38;;;;;;;31.52;15.95;;;;;;;9.00;46.44;100874.31;4474733;32;20152;-78
2022/03/19 00:08:04;;;;;;;32.47;16.75;;;;;;;9.08;46.43;100875.09;4459963;32;20124;-79
2022/03/19 00:10:29;;;;;;;33.90;16.62;;;;;;;9.12;46.66;100865.41;4473117;32;20100;-79
2022/03/19 00:12:55;;;;;;;33.40;16.70;;;;;;;9.17;46.71;100869.66;4473643;32;20149;-80
2022/03/19 00:15:20;;;;;;;32.33;16.87;;;;;;;9.09;46.80;100865.44;4473047;32;20435;-79
2022/03/19 00:17:46;;;;;;;34.00;16.33;;;;;;;9.18;46.61;100865.31;4473046;32;20176;-79
2022/03/19 00:20:12;;;;;;;32.05;16.83;;;;;;;9.11;46.83;100858.38;4487227;32;20353;-79
2022/03/19 00:22:38;;;;;;;34.17;16.65;;;;;;;9.16;46.85;100862.69;4473033;32;20113;-78
2022/03/19 00:25:04;;;;;;;30.42;16.55;;;;;;;9.17;46.85;100861.78;4459941;32;20100;-79
2022/03/19 00:27:29;;;;;;;34.42;16.65;;;;;;;9.28;46.38;100858.13;4487078;32;20088;-79
2022/03/19 00:29:55;;;;;;;32.75;16.40;;;;;;;9.32;46.41;100854.56;4487251;32;20443;-78
2022/03/19 00:32:20;;;;;;;33.80;16.98;;;;;;;9.31;46.49;100853.69;4472850;32;20456;-78
2022/03/19 00:34:46;;;;;;;33.40;16.37;;;;;;;9.28;46.75;100850.25;4483042;31;20128;-79
2022/03/19 00:37:11;;;;;;;33.72;16.50;;;;;;;9.28;46.78;100848.47;4503095;31;20129;-78
2022/03/19 00:39:37;;;;;;;31.20;15.75;;;;;;;9.36;46.57;100850.97;4488810;31;20376;-78
2022/03/19 00:42:02;;;;;;;32.33;16.27;;;;;;;9.37;46.45;100847.47;4488828;31;20127;-79
2022/03/19 00:44:28;;;;;;;34.13;16.95;;;;;;;9.36;46.52;100848.34;4501760;31;20092;-79
2022/03/19 00:46:53;;;;;;;39.13;20.12;;;;;;;9.35;46.51;100849.22;4488953;31;20080;-78
2022/03/19 00:49:19;;;;;;;37.33;19.08;;;;;;;9.25;46.46;100852.03;4503019;31;20333;-79
2022/03/19 00:51:44;;;;;;;37.30;17.42;;;;;;;9.24;46.25;100847.66;4502948;31;20360;-77
2022/03/19 00:54:12;;;;;;;33.85;17.95;;;;;;;9.30;46.22;100844.06;4502836;31;20352;-79
2022/03/19 00:56:38;;;;;;;37.72;17.77;;;;;;;9.25;46.39;100836.25;4488889;31;20080;-80
2022/03/19 00:59:03;;;;;;;39.08;17.35;;;;;;;9.29;46.58;100841.44;4488123;31;20096;-79
2022/03/19 01:01:29;;;;;;;32.70;16.85;;;;;;;9.26;46.40;100837.13;4488215;31;20092;-80
2022/03/19 01:03:54;;;;;;;33.33;17.35;;;;;;;9.30;46.40;100828.28;4482860;32;20088;-80
2022/03/19 01:06:20;;;;;;;36.08;18.00;;;;;;;8.99;47.19;100828.75;4459759;32;20133;-80
2022/03/19 01:08:46;;;;;;;34.30;17.95;;;;;;;9.20;46.84;100830.19;4486747;32;20085;-80
2022/03/19 01:11:11;;;;;;;37.08;19.30;;;;;;;9.28;46.54;100824.81;4472889;32;20499;-80
2022/03/19 01:13:37;;;;;;;34.85;17.70;;;;;;;9.25;46.45;100824.84;4459666;32;20118;-80
2022/03/19 01:16:03;;;;;;;32.95;17.17;;;;;;;9.20;46.41;100818.81;4472655;32;20424;-80
2022/03/19 01:18:29;;;;;;;32.28;16.85;;;;;;;9.02;46.84;100817.31;4486925;32;20146;-80
2022/03/19 01:20:55;;;;;;;35.42;17.92;;;;;;;9.14;46.84;100825.03;4472675;32;20127;-79
2022/03/19 01:23:20;;;;;;;33.00;17.05;;;;;;;9.12;46.91;100821.56;4472649;32;20126;-80
2022/03/19 01:25:46;;;;;;;34.33;18.45;;;;;;;9.12;46.94;100824.19;4486933;32;20139;-80
2022/03/19 01:28:11;;;;;;;36.80;19.15;;;;;;;9.09;46.86;100813.72;4472688;32;20116;-80
2022/03/19 01:30:37;;;;;;;34.90;17.98;;;;;;;9.07;46.73;100820.75;4486966;32;20088;-80
2022/03/19 01:33:02;;;;;;;34.47;17.05;;;;;;;9.01;46.97;100807.72;4488179;31;20088;-81
2022/03/19 01:35:28;;;;;;;34.00;17.55;;;;;;;8.95;47.20;100810.44;4502591;31;20096;-78
2022/03/19 01:37:53;;;;;;;36.70;18.45;;;;;;;8.94;47.20;100801.66;4502747;31;20104;-79
2022/03/19 01:40:20;;;;;;;34.80;17.40;;;;;;;8.90;47.29;100799.13;4502644;31;20079;-79
2022/03/19 01:42:47;;;;;;;34.35;17.23;;;;;;;8.88;47.21;100800.91;4502878;31;20363;-78
2022/03/19 01:45:15;;;;;;;37.35;18.12;;;;;;;8.85;47.14;100804.47;4488053;31;20629;-79
2022/03/19 01:47:41;;;;;;;36.00;17.65;;;;;;;8.81;47.15;100798.38;4502677;31;20143;-78
2022/03/19 01:50:07;;;;;;;33.67;16.92;;;;;;;8.78;47.21;100794.91;4488393;31;20168;-79
2022/03/19 01:52:33;;;;;;;31.12;16.58;;;;;;;8.77;47.30;100793.16;4487997;31;20126;-79
2022/03/19 01:54:59;;;;;;;34.50;17.20;;;;;;;8.76;47.29;100788.81;4488238;31;20348;-79
2022/03/19 01:57:27;;;;;;;33.83;18.05;;;;;;;8.71;47.28;100791.53;4488189;31;20127;-78
2022/03/19 01:59:54;;;;;;;34.75;17.33;;;;;;;8.42;48.07;100790.19;4502482;31;20096;-79
2022/03/19 02:02:21;;;;;;;35.30;17.30;;;;;;;8.54;47.81;100790.91;4487853;31;20151;-79
2022/03/19 02:04:47;;;;;;;37.55;18.35;;;;;;;8.51;47.75;100789.16;4488884;31;20088;-80
2022/03/19 02:07:12;;;;;;;36.58;19.73;;;;;;;8.49;47.79;100784.84;4488017;31;20163;-80
2022/03/19 02:09:39;;;;;;;41.28;20.83;;;;;;;8.46;47.67;100784.00;4487868;31;20344;-78
2022/03/19 02:12:06;;;;;;;36.88;19.35;;;;;;;8.41;47.52;100785.81;4502288;31;20084;-79
2022/03/19 02:14:38;;;;;;;34.30;18.23;;;;;;;8.38;47.61;100777.06;4487856;31;20100;-80
2022/03/19 02:17:05;;;;;;;37.97;18.87;;;;;;;8.24;48.01;100782.50;4502144;31;20103;-80
2022/03/19 02:19:31;;;;;;;38.83;19.35;;;;;;;8.22;47.89;100777.25;4493036;31;20101;-81
2022/03/19 02:21:57;;;;;;;38.42;20.50;;;;;;;7.91;48.42;100778.53;4486321;31;20118;-81
2022/03/19 02:27:07;;;;;;;38.05;19.85;;;;;;;8.11;47.92;100784.41;4486488;32;20123;-80
2022/03/19 02:29:32;;;;;;;43.53;20.77;;;;;;;8.13;47.85;100785.28;4486304;31;20096;-81
2022/03/19 02:32:01;;;;;;;41.60;21.20;;;;;;;8.15;47.79;100782.59;4486060;31;20147;-81
2022/03/19 02:34:27;;;;;;;38.58;19.20;;;;;;;8.18;47.62;100772.94;4497211;31;20574;-81
2022/03/19 02:36:52;;;;;;;38.30;19.40;;;;;;;8.15;47.90;100770.38;4487725;31;20367;-81
2022/03/19 02:39:28;;;;;;;38.65;19.85;;;;;;;8.19;47.90;100773.81;4485890;31;20120;-80
2022/03/19 02:41:54;;;;;;;40.28;20.37;;;;;;;8.21;47.74;100765.03;4485077;32;20072;-79
2022/03/19 02:44:20;;;;;;;41.85;21.10;;;;;;;8.21;47.63;100764.19;4484771;32;20432;-81
2022/03/19 02:46:54;;;;;;;41.08;21.90;;;;;;;8.19;47.56;100758.06;4484743;32;20138;-81
2022/03/19 02:49:19;;;;;;;44.13;22.52;;;;;;;8.22;47.52;100758.87;4482629;31;20111;-78
2022/03/19 02:51:48;;;;;;;45.70;23.65;;;;;;;8.20;47.48;100770.31;4492237;31;20110;-81
2022/03/19 02:54:16;;;;;;;44.30;21.70;;;;;;;8.08;47.56;100760.84;4480427;31;20122;-81
2022/03/19 02:56:43;;;;;;;46.60;22.00;;;;;;;8.14;47.45;100758.13;4483497;32;20088;-80
2022/03/19 02:59:19;;;;;;;42.33;21.42;;;;;;;8.22;47.33;100765.91;4494769;31;20068;-81
2022/03/19 03:01:45;;;;;;;43.92;21.45;;;;;;;8.21;47.46;100759.78;4492267;31;20107;-81
2022/03/19 03:04:11;;;;;;;45.22;21.25;;;;;;;8.24;47.66;100761.50;4481764;31;20140;-81
2022/03/19 03:06:42;;;;;;;41.15;20.77;;;;;;;8.34;47.46;100762.25;4475776;31;20421;-80
2022/03/19 03:09:09;;;;;;;38.47;20.77;;;;;;;8.33;47.31;100760.53;4485530;31;20126;-79
2022/03/19 03:11:35;;;;;;;43.17;20.55;;;;;;;8.32;47.33;100761.38;4479808;31;20872;-80
2022/03/19 03:14:01;;;;;;;42.35;21.08;;;;;;;8.24;47.49;100758.87;4495356;31;20404;-80
2022/03/19 03:16:29;;;;;;;39.00;19.70;;;;;;;8.28;47.37;100763.19;4493404;31;20142;-79
2022/03/19 03:18:56;;;;;;;38.60;19.58;;;;;;;8.32;47.39;100761.38;4491497;31;20114;-80
2022/03/19 03:21:21;;;;;;;40.80;20.52;;;;;;;8.32;47.39;100767.50;4481613;31;20084;-79
2022/03/19 03:23:47;;;;;;;39.97;20.40;;;;;;;8.42;47.29;100760.41;4484290;31;20441;-78
2022/03/19 03:26:13;;;;;;;42.17;20.60;;;;;;;8.45;47.38;100763.84;4489108;31;20100;-80
2022/03/19 03:28:38;;;;;;;43.20;20.92;;;;;;;8.52;47.37;100761.12;4489321;31;20120;-79
2022/03/19 03:31:03;;;;;;;42.92;22.75;;;;;;;8.58;47.17;100753.19;4489116;31;20205;-80
2022/03/19 03:33:29;;;;;;;47.13;22.13;;;;;;;8.54;47.23;100757.62;4489138;31;20076;-80
2022/03/19 03:35:54;;;;;;;44.58;22.62;;;;;;;8.58;47.23;100751.41;4489046;31;20463;-79
2022/03/19 03:38:20;;;;;;;54.85;25.20;;;;;;;8.57;47.20;100749.66;4503429;31;20127;-77
2022/03/19 03:40:45;;;;;;;50.38;24.90;;;;;;;8.60;46.89;100751.41;4503557;31;20111;-78
2022/03/19 03:43:11;;;;;;;49.20;24.95;;;;;;;8.58;46.90;100754.06;4503563;31;20102;-77
2022/03/19 03:45:36;;;;;;;45.60;24.45;;;;;;;8.60;47.00;100746.16;4503628;31;20156;-78
2022/03/19 03:48:02;;;;;;;45.28;23.95;;;;;;;8.60;47.02;100743.53;4496756;31;20127;-77
2022/03/19 03:50:28;;;;;;;49.47;24.98;;;;;;;8.60;47.16;100738.28;4487882;31;20391;-77
2022/03/19 03:52:53;;;;;;;49.13;24.73;;;;;;;8.63;46.92;100744.34;4491554;31;20084;-77
2022/03/19 03:55:19;;;;;;;49.42;25.05;;;;;;;8.61;46.94;100740.84;4488902;31;20119;-77
2022/03/19 03:57:44;;;;;;;50.67;25.33;;;;;;;8.63;47.02;100743.47;4488119;31;20108;-78
2022/03/19 04:00:10;;;;;;;54.08;25.30;;;;;;;8.63;47.06;100743.47;4487455;31;20084;-76
2022/03/19 04:02:36;;;;;;;50.35;25.45;;;;;;;8.63;46.86;100736.47;4487246;31;20081;-78
2022/03/19 04:05:02;;;;;;;49.25;27.08;;;;;;;8.59;46.96;100739.16;4485986;31;20161;-77
2022/03/19 04:07:28;;;;;;;60.03;27.73;;;;;;;8.60;47.15;100736.50;4486396;32;20092;-77
2022/03/19 04:09:54;;;;;;;49.22;25.27;;;;;;;8.43;47.37;100733.25;4487693;31;20122;-78
2022/03/19 04:12:19;;;;;;;56.72;28.08;;;;;;;8.52;47.33;100732.25;4486497;32;20352;-77
2022/03/19 04:14:45;;;;;;;54.30;27.30;;;;;;;8.57;47.29;100730.41;4473395;32;20160;-78
2022/03/19 04:17:10;;;;;;;47.22;24.42;;;;;;;8.64;46.99;100726.81;4487662;31;20089;-77
2022/03/19 04:19:36;;;;;;;48.20;25.20;;;;;;;8.64;47.11;100732.94;4486258;32;20127;-77
2022/03/19 04:22:01;;;;;;;49.05;24.48;;;;;;;8.58;47.16;100735.66;4487593;31;20110;-77
2022/03/19 04:24:27;;;;;;;50.78;25.08;;;;;;;8.60;47.08;100739.13;4503412;31;20088;-78
2022/03/19 04:26:52;;;;;;;48.22;24.98;;;;;;;8.50;47.20;100736.66;4503400;31;20092;-77
2022/03/19 04:29:17;;;;;;;48.20;25.73;;;;;;;8.52;47.44;100732.25;4488938;31;20111;-78
2022/03/19 04:31:49;;;;;;;45.42;24.98;;;;;;;8.55;47.64;100733.06;4503423;31;20107;-78
2022/03/19 04:34:15;;;;;;;48.58;23.62;;;;;;;8.64;47.68;100734.69;4488649;31;20080;-79
2022/03/19 04:36:41;;;;;;;48.13;23.98;;;;;;;8.64;47.49;100729.44;4503073;31;20106;-79
2022/03/19 04:39:07;;;;;;;43.85;22.87;;;;;;;8.63;47.48;100725.97;4488803;31;20084;-78
2022/03/19 04:41:34;;;;;;;41.03;21.98;;;;;;;8.71;47.46;100741.59;4488464;31;20080;-80
2022/03/19 04:44:00;;;;;;;43.67;21.45;;;;;;;8.72;47.28;100738.06;4488777;31;20161;-80
2022/03/19 04:46:25;;;;;;;41.65;21.77;;;;;;;8.74;47.16;100736.28;4488544;31;20120;-80
2022/03/19 04:48:52;;;;;;;41.13;20.83;;;;;;;8.73;47.18;100742.44;4488884;31;20401;-80
2022/03/19 04:51:18;;;;;;;48.20;23.12;;;;;;;8.75;47.03;100738.03;4489095;31;20256;-80
2022/03/19 04:53:52;;;;;;;44.75;23.23;;;;;;;8.72;47.01;100734.59;4476112;32;20135;-80
2022/03/19 04:56:18;;;;;;;45.25;24.27;;;;;;;8.66;47.13;100746.06;4473504;32;20112;-80
2022/03/19 04:58:44;;;;;;;49.78;26.45;;;;;;;8.71;47.31;100743.34;4486974;31;20088;-79
2022/03/19 05:01:09;;;;;;;52.40;27.45;;;;;;;8.72;47.37;100747.72;4485929;32;20152;-80
2022/03/19 05:03:35;;;;;;;57.33;28.40;;;;;;;8.76;47.35;100749.41;4486862;32;20123;-79
2022/03/19 05:06:00;;;;;;;54.25;27.62;;;;;;;8.78;47.25;100751.09;4485963;32;20096;-79
2022/03/19 05:08:26;;;;;;;50.30;27.42;;;;;;;8.81;47.01;100748.44;4487037;31;20224;-78
2022/03/19 05:13:35;;;;;;;42.33;22.48;;;;;;;8.80;46.88;100753.72;4486892;32;20127;-80
2022/03/19 05:16:01;;;;;;;46.58;22.80;;;;;;;8.38;47.60;100763.94;4486961;31;20093;-78
2022/03/19 05:18:26;;;;;;;42.55;21.65;;;;;;;8.57;47.43;100746.19;4485844;32;20124;-79
2022/03/19 05:20:53;;;;;;;40.05;21.02;;;;;;;8.63;47.45;100746.09;4486308;31;20092;-80
2022/03/19 05:23:18;;;;;;;45.72;22.67;;;;;;;8.61;47.72;100743.47;4495720;31;20092;-79
2022/03/19 05:25:44;;;;;;;44.17;22.95;;;;;;;8.61;47.83;100742.63;4502775;31;20461;-79
2022/03/19 05:28:09;;;;;;;45.17;21.50;;;;;;;8.70;47.55;100750.38;4479943;31;20155;-79
2022/03/19 05:30:36;;;;;;;39.47;21.23;;;;;;;8.71;47.39;100745.97;4473846;32;20124;-80
2022/03/19 05:33:01;;;;;;;45.30;22.58;;;;;;;8.59;47.56;100741.78;4472954;32;20168;-79
2022/03/19 05:35:28;;;;;;;44.53;22.50;;;;;;;8.56;47.68;100742.69;4472452;32;20128;-79
2022/03/19 05:37:53;;;;;;;43.78;22.55;;;;;;;8.53;48.04;100745.34;4472622;32;20147;-78
2022/03/19 05:40:19;;;;;;;40.25;21.65;;;;;;;8.63;47.91;100746.09;4486819;32;20089;-79
2022/03/19 05:42:44;;;;;;;40.12;20.80;;;;;;;8.65;47.47;100752.19;4486744;32;20483;-80
2022/03/19 05:45:10;;;;;;;44.65;21.73;;;;;;;8.68;47.55;100751.28;4472606;32;20501;-79
2022/03/19 05:47:38;;;;;;;41.00;22.33;;;;;;;8.67;47.62;100745.16;4493035;31;20229;-79
2022/03/19 05:50:05;;;;;;;47.65;24.65;;;;;;;8.72;47.75;100753.84;4502605;31;20079;-79
2022/03/19 05:52:31;;;;;;;46.22;24.05;;;;;;;8.68;47.77;100752.16;4490021;31;20088;-79
2022/03/19 05:54:56;;;;;;;47.22;23.52;;;;;;;8.73;47.64;100747.72;4492606;31;20423;-81
2022/03/19 05:57:22;;;;;;;48.97;25.67;;;;;;;8.77;47.66;100756.38;4491174;31;20436;-80
2022/03/19 05:59:47;;;;;;;48.13;26.35;;;;;;;8.88;47.41;100753.59;4502206;31;20169;-79
2022/03/19 06:02:12;;;;;;;46.63;24.83;;;;;;;8.87;47.43;100759.75;4502193;31;20087;-80
2022/03/19 06:04:38;;;;;;;50.90;25.75;;;;;;;8.92;47.20;100757.91;4502349;31;20356;-78
2022/03/19 06:07:04;;;;;;;43.53;23.62;;;;;;;8.95;46.70;100755.25;4488124;31;20095;-79
2022/03/19 06:09:30;;;;;;;47.25;24.27;;;;;;;9.08;45.70;100754.16;4474681;31;20420;-80
2022/03/19 06:11:55;;;;;;;42.30;23.05;;;;;;;9.10;45.41;100754.09;4502295;31;20128;-80
2022/03/19 06:14:21;;;;;;;42.00;23.52;;;;;;;9.27;44.75;100759.06;4474690;31;20136;-80
2022/03/19 06:16:46;;;;;;;43.53;22.98;;;;;;;9.22;44.54;100759.16;4501178;31;20114;-79
2022/03/19 06:19:12;;;;;;;43.47;22.65;;;;;;;9.29;43.98;100763.44;4486316;31;20120;-80
2022/03/19 06:21:40;;;;;;;46.92;23.85;;;;;;;9.31;43.51;100763.38;4486348;31;20127;-80
2022/03/19 06:24:07;;;;;;;44.83;23.17;;;;;;;9.37;43.01;100763.31;4486480;31;20459;-80
2022/03/19 06:26:33;;;;;;;43.13;22.98;;;;;;;9.44;42.82;100760.53;4486281;31;20126;-80
2022/03/19 06:28:59;;;;;;;44.05;22.73;;;;;;;9.55;41.81;100765.56;4485015;32;20450;-79
2022/03/19 06:31:24;;;;;;;45.55;23.02;;;;;;;9.58;41.44;100767.28;4486645;31;20115;-80
2022/03/19 06:33:50;;;;;;;46.40;24.92;;;;;;;9.61;41.43;100769.84;4502244;31;20089;-80
2022/03/19 06:39:00;;;;;;;46.50;22.98;;;;;;;9.61;41.97;100769.84;4491771;31;20074;-79
2022/03/19 06:41:26;;;;;;;45.35;21.23;;;;;;;9.54;41.93;100762.97;4489435;31;20092;-79
2022/03/19 06:43:51;;;;;;;44.80;22.35;;;;;;;9.65;41.74;100761.88;4487918;31;20112;-80
2022/03/19 06:46:17;;;;;;;43.08;21.52;;;;;;;9.74;41.60;100766.09;4486720;31;20096;-80
2022/03/19 06:48:42;;;;;;;40.45;21.50;;;;;;;9.70;41.38;100766.19;4492001;31;20211;-80
2022/03/19 06:51:08;;;;;;;39.55;19.27;;;;;;;9.87;41.11;100763.22;4488091;31;20110;-79
2022/03/19 06:53:33;;;;;;;41.40;18.87;;;;;;;9.88;40.36;100765.81;4474585;32;20119;-80
2022/03/19 06:55:59;;;;;;;34.65;18.77;;;;;;;9.97;39.57;100759.53;4487937;31;20110;-80
2022/03/19 06:58:24;;;;;;;40.33;20.62;;;;;;;9.97;39.15;100762.16;4488177;31;20115;-79
2022/03/19 07:00:50;;;;;;;35.95;18.48;;;;;;;10.12;38.71;100760.94;4473734;32;20153;-77
2022/03/19 07:03:16;;;;;;;38.00;18.87;;;;;;;10.23;38.26;100762.44;4487736;31;20097;-79
2022/03/19 07:05:41;;;;;;;43.50;19.92;;;;;;;10.31;37.92;100764.94;4486974;32;20085;-80
2022/03/19 07:08:08;;;;;;;36.15;18.48;;;;;;;10.51;37.01;100754.00;4488066;31;20111;-79
2022/03/19 07:10:34;;;;;;;38.00;19.05;;;;;;;10.68;36.31;100763.25;4488195;31;20108;-80
2022/03/19 07:13:00;;;;;;;39.20;18.75;;;;;;;10.57;36.21;100761.75;4488128;31;20510;-80
2022/03/19 07:15:29;;;;;;;38.58;19.65;;;;;;;10.68;35.98;100764.16;4486754;32;20112;-81
2022/03/19 07:17:56;;;;;;;36.60;18.73;;;;;;;10.57;36.36;100764.38;4487874;31;20436;-81
2022/03/19 07:20:22;;;;;;;37.63;19.10;;;;;;;10.71;36.26;100766.69;4488576;31;20451;-79
2022/03/19 07:22:50;;;;;;;38.33;19.85;;;;;;;10.61;35.90;100766.03;4475962;31;20121;-80
2022/03/19 07:25:16;;;;;;;40.80;20.50;;;;;;;10.57;35.97;100769.66;4503541;31;20079;-80
2022/03/19 07:27:42;;;;;;;37.22;19.37;;;;;;;10.73;35.80;100772.78;4489314;31;20088;-81
2022/03/19 07:30:09;;;;;;;38.28;20.92;;;;;;;10.74;35.79;100766.63;4489239;31;20160;-81
2022/03/19 07:32:34;;;;;;;35.13;19.12;;;;;;;10.92;35.14;100777.66;4503506;31;20752;-80
2022/03/19 07:35:00;;;;;;;38.53;20.10;;;;;;;10.91;35.25;100770.62;4503576;31;20132;-80
2022/03/19 07:37:26;;;;;;;40.90;20.33;;;;;;;10.95;35.59;100769.63;4489010;31;20103;-79
2022/03/19 07:39:52;;;;;;;42.25;20.70;;;;;;;11.00;35.14;100778.31;4488921;31;20104;-78
2022/03/19 07:42:17;;;;;;;43.08;21.02;;;;;;;11.17;34.54;100773.50;4502922;31;20080;-79
2022/03/19 07:44:43;;;;;;;37.90;21.10;;;;;;;11.23;34.70;100769.84;4488778;31;20106;-77
2022/03/19 07:47:08;;;;;;;36.08;20.42;;;;;;;11.25;34.85;100770.66;4503150;31;20133;-81
2022/03/19 07:49:33;;;;;;;37.05;20.50;;;;;;;11.42;34.39;100772.87;4492777;31;20100;-79
2022/03/19 07:52:05;;;;;;;36.15;19.20;;;;;;;11.50;34.24;100773.53;4486126;31;20364;-78
2022/03/19 07:54:30;;;;;;;37.40;19.67;;;;;;;11.56;34.20;100772.50;4487393;31;20113;-79
2022/03/19 07:56:56;;;;;;;41.35;20.52;;;;;;;11.69;34.14;100778.31;4487226;31;20073;-80
2022/03/19 07:59:21;;;;;;;39.38;20.83;;;;;;;11.96;33.53;100769.66;4472549;32;20135;-80
2022/03/19 08:01:48;;;;;;;39.47;19.77;;;;;;;11.95;33.69;100774.97;4487062;31;20119;-79
2022/03/19 08:04:14;;;;;;;44.78;25.10;;;;;;;12.11;33.47;100778.03;4487179;31;20147;-84
2022/03/19 08:06:40;;;;;;;48.80;26.10;;;;;;;12.15;34.19;100777.06;4487238;31;20122;-78
2022/03/19 08:09:07;;;;;;;48.47;26.15;;;;;;;12.12;34.21;100777.13;4487556;31;20255;-79
2022/03/19 08:11:33;;;;;;;46.42;26.73;;;;;;;12.07;34.53;100781.69;4494867;31;20172;-78
2022/03/19 08:13:58;;;;;;;51.65;27.80;;;;;;;11.94;34.81;100784.69;4492520;31;20367;-78
2022/03/19 08:16:24;;;;;;;44.25;24.83;;;;;;;11.86;35.23;100781.38;4477943;31;20144;-77
2022/03/19 08:18:49;;;;;;;41.00;22.62;;;;;;;11.91;35.26;100783.91;4476688;32;20100;-78
2022/03/19 08:21:15;;;;;;;43.53;23.23;;;;;;;11.69;34.04;100789.75;4477861;31;20519;-80
2022/03/19 08:23:40;;;;;;;45.58;25.55;;;;;;;11.51;34.92;100790.22;4476182;32;20140;-80
2022/03/19 08:26:06;;;;;;;50.05;26.98;;;;;;;11.55;35.22;100795.41;4491916;31;20086;-79
2022/03/19 08:28:31;;;;;;;48.15;26.62;;;;;;;11.76;35.39;100791.31;4476746;31;20460;-79
2022/03/19 08:30:58;;;;;;;42.55;23.80;;;;;;;11.79;35.43;100787.72;4477435;31;20120;-78
2022/03/19 08:33:24;;;;;;;48.95;25.20;;;;;;;11.38;36.36;100789.69;4480267;31;20118;-78
2022/03/19 08:35:50;;;;;;;46.15;23.80;;;;;;;11.53;35.84;100791.03;4492665;31;20628;-78
2022/03/19 08:40:59;;;;;;;45.35;24.48;;;;;;;11.73;34.48;100793.16;4493983;31;20172;-79
2022/03/19 08:43:24;;;;;;;40.83;23.52;;;;;;;11.71;35.05;100787.06;4496695;31;20406;-76
2022/03/19 08:45:50;;;;;;;47.60;23.30;;;;;;;11.61;34.99;100792.59;4475075;31;20095;-79
2022/03/19 08:48:18;;;;;;;42.92;22.30;;;;;;;11.64;35.12;100790.78;4493743;31;20119;-80
2022/03/19 08:50:44;;;;;;;41.33;21.65;;;;;;;11.82;35.03;100790.28;4494668;31;20115;-79
2022/03/19 08:53:09;;;;;;;40.38;21.75;;;;;;;11.74;34.15;100787.84;4495834;31;20132;-78
2022/03/19 08:55:34;;;;;;;38.28;20.33;;;;;;;11.72;34.32;100789.63;4486177;31;20122;-79
2022/03/19 08:58:00;;;;;;;35.58;19.10;;;;;;;11.78;34.54;100788.59;4488007;31;20135;-79
2022/03/19 09:00:26;;;;;;;35.58;19.65;;;;;;;11.92;33.76;100785.63;4485194;31;20443;-78
2022/03/19 09:02:51;;;;;;;32.17;17.65;;;;;;;12.10;33.84;100790.38;4465552;31;20100;-79
2022/03/19 09:05:17;;;;;;;30.60;17.67;;;;;;;12.16;32.48;100786.69;4487787;31;20332;-79
2022/03/19 09:07:42;;;;;;;34.03;18.62;;;;;;;12.16;32.62;100784.06;4459648;32;20119;-80
2022/03/19 09:10:08;;;;;;;30.75;16.20;;;;;;;12.17;32.76;100781.38;4490218;31;20096;-79
2022/03/19 09:12:35;;;;;;;32.08;16.25;;;;;;;12.46;32.25;100791.97;4476240;31;20100;-78
2022/03/19 09:15:00;;;;;;;33.42;17.30;;;;;;;12.55;32.16;100775.84;4487003;32;20092;-78
2022/03/19 09:17:26;;;;;;;31.48;16.17;;;;;;;12.68;31.60;100782.47;4486741;32;20345;-79
2022/03/19 09:19:51;;;;;;;31.60;17.30;;;;;;;12.85;31.30;100778.44;4489289;31;20095;-78
2022/03/19 09:22:16;;;;;;;29.30;15.88;;;;;;;12.99;30.63;100778.84;4489293;31;20128;-80
2022/03/19 09:24:42;;;;;;;30.30;15.75;;;;;;;12.98;31.22;100777.16;4486883;31;20450;-79
2022/03/19 09:27:07;;;;;;;30.95;16.42;;;;;;;12.97;30.85;100778.91;4490649;31;20376;-79
2022/03/19 09:29:33;;;;;;;30.12;15.98;;;;;;;13.22;30.62;100772.81;4491143;31;20509;-78
2022/03/19 09:31:59;;;;;;;30.62;16.25;;;;;;;13.12;30.13;100780.19;4494355;31;20423;-79
2022/03/19 09:34:24;;;;;;;33.40;18.25;;;;;;;13.07;30.67;100782.09;4486492;31;20106;-79
2022/03/19 09:36:49;;;;;;;33.58;16.62;;;;;;;13.11;30.62;100775.78;4472588;32;20108;-79
2022/03/19 09:39:16;;;;;;;28.90;15.63;;;;;;;13.22;30.40;100779.87;4472469;32;20108;-80
2022/03/19 09:41:42;;;;;;;32.17;17.05;;;;;;;13.24;29.73;100784.19;4472035;32;20100;-79
2022/03/19 09:44:09;;;;;;;32.28;16.83;;;;;;;13.02;30.22;100788.47;4485570;32;20088;-80
2022/03/19 09:46:35;;;;;;;31.90;16.42;;;;;;;12.97;31.31;100778.91;4486944;31;20139;-80
2022/03/19 09:49:00;;;;;;;31.33;16.42;;;;;;;13.27;30.37;100781.47;4485589;32;20104;-79
2022/03/19 09:51:27;;;;;;;31.12;16.92;;;;;;;13.36;29.46;100783.81;4486523;31;20112;-78
2022/03/19 09:53:54;;;;;;;30.85;17.42;;;;;;;13.27;29.58;100783.22;4485329;31;20138;-78
2022/03/19 09:56:20;;;;;;;31.37;17.83;;;;;;;13.39;30.08;100788.16;4477529;31;20162;-79
2022/03/19 09:58:48;;;;;;;31.80;17.65;;;;;;;13.40;29.49;100773.97;4491015;31;20233;-79
2022/03/19 10:01:16;;;;;;;29.67;15.98;;;;;;;13.34;29.77;100777.69;4475916;31;20084;-79
2022/03/19 10:03:42;;;;;;;29.85;15.32;;;;;;;13.30;30.46;100778.72;4492842;31;20083;-79
2022/03/19 10:08:57;;;;;;;28.40;15.50;;;;;;;13.49;29.90;100775.47;4491883;31;20756;-81
2022/03/19 10:11:28;;;;;;;27.70;15.60;;;;;;;13.62;29.67;100774.12;4493270;31;20455;-81
2022/03/19 10:13:53;;;;;;;29.35;15.18;;;;;;;13.55;29.37;100776.09;4477293;31;20106;-81
2022/03/19 10:16:28;;;;;;;25.08;13.45;;;;;;;13.41;29.45;100775.72;4478487;31;20112;-75
2022/03/19 10:18:59;;;;;;;25.37;13.35;;;;;;;13.31;28.87;100771.69;4489636;31;20118;-81
2022/03/19 10:21:25;;;;;;;25.65;13.32;;;;;;;13.25;27.00;100770.06;4480031;31;20084;-82
2022/03/19 10:23:51;;;;;;;26.62;13.88;;;;;;;13.17;27.95;100770.31;4488987;31;20470;-82
2022/03/19 10:26:30;;;;;;;26.70;13.95;;;;;;;13.13;28.84;100765.16;4477151;31;20127;-83
2022/03/19 10:29:02;;;;;;;25.08;12.75;;;;;;;13.11;28.71;100767.00;4476786;31;20130;-85
2022/03/19 10:31:32;;;;;;;25.50;12.98;;;;;;;12.98;28.07;100775.34;4476230;32;20387;-83
2022/03/19 10:33:58;;;;;;;23.10;12.82;;;;;;;12.95;27.00;100769.28;4486283;32;20084;-82
2022/03/19 10:36:37;;;;;;;24.98;12.95;;;;;;;13.09;27.09;100768.84;4473690;31;20455;-83
2022/03/19 10:39:32;;;;;;;24.67;13.57;;;;;;;12.72;27.59;100767.38;4491568;31;20096;-83
2022/03/19 10:41:58;;;;;;;26.10;13.73;;;;;;;12.81;28.04;100767.09;4472290;31;20180;-83
2022/03/19 10:44:26;;;;;;;25.88;12.95;;;;;;;12.77;28.44;100765.47;4476432;31;20159;-81
2022/03/19 10:46:53;;;;;;;25.15;13.25;;;;;;;12.91;28.42;100762.37;4475299;31;20104;-82
2022/03/19 10:49:21;;;;;;;25.45;13.50;;;;;;;12.73;28.65;100759.41;4487187;31;20108;-84
2022/03/19 10:51:52;;;;;;;26.48;13.52;;;;;;;12.77;28.84;100758.41;4491977;31;20155;-83
2022/03/19 10:54:18;;;;;;;24.52;12.23;;;;;;;12.54;28.98;100756.47;4482479;32;20077;-83
2022/03/19 10:56:45;;;;;;;19.70;10.15;;;;;;;12.43;27.06;100760.38;4488178;31;20401;-84
2022/03/19 10:59:11;;;;;;;23.55;10.48;;;;;;;12.51;25.76;100755.69;4476683;32;20126;-83
2022/03/19 11:01:38;;;;;;;22.23;10.95;;;;;;;12.69;25.30;100749.84;4481342;32;20119;-84
2022/03/19 11:04:05;;;;;;;22.67;10.13;;;;;;;12.56;25.32;100757.28;4470583;31;20122;-84
2022/03/19 11:06:39;;;;;;;19.55;9.80;;;;;;;12.54;24.60;100747.69;4470412;32;20149;-83
2022/03/19 11:09:09;;;;;;;22.45;11.25;;;;;;;12.62;25.10;100740.38;4488749;31;20084;-82
2022/03/19 11:11:46;;;;;;;23.58;11.95;;;;;;;12.76;25.56;100735.50;4500316;31;20092;-84
2022/03/19 11:14:19;;;;;;;23.48;12.50;;;;;;;12.79;25.51;100740.69;4491644;31;20111;-82
2022/03/19 11:17:23;;;;;;;22.08;12.15;;;;;;;12.78;26.52;100738.94;4496975;31;20666;-80
2022/03/19 11:19:32;;;;;;;23.57;12.23;;;;;;;12.83;26.65;100732.69;4485721;32;20126;-81
2022/03/19 11:21:58;;;;;;;25.65;12.75;;;;;;;12.80;27.16;100728.31;4474329;31;20116;-84
2022/03/19 11:24:25;;;;;;;25.15;12.20;;;;;;;12.67;26.81;100727.00;4490820;31;20084;-82